Neeses, South Carolina
Current Conditions -  °F | °C
As of 9:53 AM on Thursday 23 Oct 2014 (Local Time) from KOGB Reporting Station
Clear Clear  
Wind Chill: 53°   Ceiling: Unl
Heat Index: 53°   Visibility: 10mi
Dew Point: 42°   Wind: 5mph
Humidity: 66%   Direction: 330°NNW
Pressure: 30.11"   Gusts: NA
Location:  33.53°N, 81.12°W
Report Text: KOGB 231353Z AUTO 33004KT 10SM CLR 12/06 A3011 RMK AO2 SLP195 T01170056
Loading
Personal Weather Stations






























Interactive Weather Map
Tropical Storm Tracking
New forecast layout! Learn more

10-Day Weather Forecast

Advertisements
Track Severe Weather on mobile